Time;durP1;ratioP1;P1;durP2;ratioP2;P2;SDS_P1;SDS_P2;PMS_P1;PMS_P2;Temp;Humidity;BMP_temperature;BMP_pressure;BME280_temperature;BME280_humidity;BME280_pressure;Samples;Min_cycle;Max_cycle;Signal;HPM_P1;HPM_P2
2023/10/15 00:06:17;;;;;;;477.70;436.30;;;;;;;;;;6247312;23;20008;-96
2023/10/15 00:08:52;;;;;;;625.80;560.50;;;;;;;;;;6246660;23;20099;-95
2023/10/15 00:11:21;;;;;;;406.45;374.40;;;;;;;;;;6267707;22;20010;-95
2023/10/15 00:14:07;;;;;;;360.83;332.90;;;;;;;;;;6252853;23;20007;-95
2023/10/15 00:16:33;;;;;;;398.25;366.70;;;;;;;;;;6216477;23;20004;-96
2023/10/15 00:19:17;;;;;;;348.80;322.17;;;;;;;;;;6248714;23;20038;-94
2023/10/15 00:30:44;;;;;;;379.77;350.33;;;;;;;;;;6187868;23;20016;-96
2023/10/15 00:33:19;;;;;;;355.75;328.65;;;;;;;;;;6160271;23;20025;-96
2023/10/15 00:35:53;;;;;;;648.92;585.72;;;;;;;;;;6198126;23;20000;-96
2023/10/15 00:38:20;;;;;;;335.58;309.58;;;;;;;;;;6247345;23;20015;-96
2023/10/15 00:44:14;;;;;;;388.95;357.83;;;;;;;;;;6247706;23;20445;-96
2023/10/15 00:47:02;;;;;;;388.60;356.70;;;;;;;;;;6220133;23;20024;-96
2023/10/15 00:49:30;;;;;;;331.73;306.80;;;;;;;;;;6244596;23;20071;-96
2023/10/15 00:55:05;;;;;;;354.77;326.00;;;;;;;;;;6247896;23;20082;-96
2023/10/15 01:03:56;;;;;;;520.35;472.60;;;;;;;;;;6127380;23;20014;-96
2023/10/15 01:15:06;;;;;;;338.00;311.70;;;;;;;;;;6248588;23;20380;-96
2023/10/15 01:17:38;;;;;;;381.20;350.75;;;;;;;;;;6248930;23;20004;-96
2023/10/15 01:20:07;;;;;;;336.80;311.33;;;;;;;;;;6246542;23;20079;-96
2023/10/15 01:22:43;;;;;;;369.00;337.88;;;;;;;;;;6246795;23;20011;-96
2023/10/15 01:28:11;;;;;;;359.65;330.63;;;;;;;;;;6236437;22;20016;-95
2023/10/15 01:30:41;;;;;;;418.95;380.20;;;;;;;;;;6244343;23;20000;-95
2023/10/15 01:33:29;;;;;;;399.58;364.83;;;;;;;;;;6214652;23;20051;-96
2023/10/15 01:41:13;;;;;;;315.15;290.77;;;;;;;;;;6286204;22;20020;-96
2023/10/15 01:43:53;;;;;;;351.73;322.60;;;;;;;;;;6268619;22;20004;-96
2023/10/15 01:49:07;;;;;;;324.08;299.27;;;;;;;;;;6280660;22;20034;-96
2023/10/15 01:51:45;;;;;;;388.70;357.00;;;;;;;;;;6246605;22;20054;-96
2023/10/15 01:54:16;;;;;;;344.45;317.30;;;;;;;;;;6254959;22;20008;-96
2023/10/15 01:56:55;;;;;;;375.33;343.17;;;;;;;;;;6247020;22;20027;-96
2023/10/15 01:59:47;;;;;;;312.08;287.67;;;;;;;;;;6253664;22;20004;-96
2023/10/15 02:02:37;;;;;;;353.38;325.15;;;;;;;;;;6248986;22;20209;-96
2023/10/15 02:05:41;;;;;;;322.40;297.38;;;;;;;;;;6238221;22;20476;-96
2023/10/15 02:08:26;;;;;;;313.92;289.85;;;;;;;;;;6253141;23;20384;-96
2023/10/15 02:11:21;;;;;;;;;;;;;;;;;;;;;
2023/10/15 02:14:09;;;;;;;351.50;324.27;;;;;;;;;;6251606;23;20071;-96
2023/10/15 02:23:25;;;;;;;350.38;322.75;;;;;;;;;;6164332;23;20017;-96
2023/10/15 02:32:20;;;;;;;;;;;;;;;;;;;;;
2023/10/15 02:34:52;;;;;;;351.65;323.88;;;;;;;;;;6253294;23;20036;-96
2023/10/15 02:40:35;;;;;;;336.77;309.25;;;;;;;;;;6206188;23;20004;-96
2023/10/15 02:43:07;;;;;;;343.10;314.70;;;;;;;;;;6250116;23;20039;-95
2023/10/15 02:46:36;;;;;;;343.00;315.52;;;;;;;;;;6250795;23;20004;-96
2023/10/15 02:49:03;;;;;;;335.75;309.75;;;;;;;;;;6240229;23;20023;-96
2023/10/15 02:54:45;;;;;;;358.55;329.60;;;;;;;;;;6165185;23;20133;-96
2023/10/15 02:57:30;;;;;;;368.80;339.85;;;;;;;;;;6161297;23;20002;-95
2023/10/15 03:00:12;;;;;;;341.50;313.20;;;;;;;;;;6138746;23;20002;-96
2023/10/15 03:05:42;;;;;;;349.60;322.67;;;;;;;;;;6280508;22;20467;-96
2023/10/15 03:08:56;;;;;;;;;;;;;;;;;;;;;
2023/10/15 03:11:46;;;;;;;;;;;;;;;;;;;;;
2023/10/15 03:14:24;;;;;;;397.17;365.58;;;;;;;;;;6138397;23;20026;-96
2023/10/15 03:22:58;;;;;;;359.75;330.65;;;;;;;;;;6293152;22;20011;-96
2023/10/15 03:29:26;;;;;;;351.50;323.98;;;;;;;;;;6138641;23;20009;-94
2023/10/15 03:35:04;;;;;;;379.90;350.27;;;;;;;;;;6075750;23;20007;-96
2023/10/15 03:37:38;;;;;;;314.42;290.52;;;;;;;;;;6049112;23;20039;-96
2023/10/15 03:40:11;;;;;;;;;;;;;;;;;;6048089;23;20007;-96
2023/10/15 03:42:52;;;;;;;376.50;347.43;;;;;;;;;;6075295;23;19901;-96
2023/10/15 03:45:39;;;;;;;;;;;;;;;;;;;;;
2023/10/15 03:48:09;;;;;;;356.27;328.23;;;;;;;;;;6282245;22;20090;-96
2023/10/15 03:51:48;;;;;;;333.80;307.75;;;;;;;;;;6239161;22;20010;-95
2023/10/15 03:53:58;;;;;;;331.77;306.42;;;;;;;;;;6249578;22;20372;-96
2023/10/15 03:56:43;;;;;;;374.58;344.52;;;;;;;;;;6265220;22;19991;-96
2023/10/15 03:59:32;;;;;;;337.48;311.83;;;;;;;;;;6265379;22;20004;-96
2023/10/15 04:02:26;;;;;;;315.92;290.80;;;;;;;;;;6253893;22;20035;-96
2023/10/15 04:05:27;;;;;;;;;;;;;;;;;;;;;
2023/10/15 04:08:18;;;;;;;351.13;324.23;;;;;;;;;;6285261;22;20039;-96
2023/10/15 04:17:06;;;;;;;379.35;350.38;;;;;;;;;;6256591;22;20003;-96
2023/10/15 04:19:42;;;;;;;;;;;;;;;;;;;;;
2023/10/15 04:22:21;;;;;;;363.25;335.38;;;;;;;;;;6285739;22;20050;-96
2023/10/15 04:25:06;;;;;;;404.73;372.40;;;;;;;;;;6255433;22;20004;-96
2023/10/15 04:27:47;;;;;;;372.42;340.70;;;;;;;;;;6254149;22;20003;-95
2023/10/15 04:36:09;;;;;;;356.83;328.25;;;;;;;;;;6281473;22;20018;-96
2023/10/15 04:38:42;;;;;;;363.33;334.48;;;;;;;;;;6254358;22;20031;-96
2023/10/15 04:41:23;;;;;;;350.10;322.70;;;;;;;;;;6250983;22;20007;-96
2023/10/15 04:43:56;;;;;;;364.67;336.05;;;;;;;;;;6273858;22;19992;-96
2023/10/15 04:46:26;;;;;;;414.75;379.83;;;;;;;;;;6241606;22;20099;-95
2023/10/15 04:48:58;;;;;;;397.40;366.17;;;;;;;;;;6272682;22;20024;-95
2023/10/15 04:51:29;;;;;;;379.15;348.42;;;;;;;;;;6226158;23;20406;-96
2023/10/15 04:54:02;;;;;;;335.92;309.17;;;;;;;;;;6242757;23;20008;-95
2023/10/15 04:56:32;;;;;;;375.42;345.92;;;;;;;;;;6245581;23;20010;-96
2023/10/15 04:59:07;;;;;;;352.75;325.98;;;;;;;;;;6222203;23;20051;-95
2023/10/15 05:01:42;;;;;;;426.67;392.40;;;;;;;;;;6246368;23;20000;-95
2023/10/15 05:04:09;;;;;;;462.30;422.77;;;;;;;;;;6246406;23;20042;-96
2023/10/15 05:12:38;;;;;;;458.90;419.88;;;;;;;;;;6248338;23;20016;-95
2023/10/15 05:15:29;;;;;;;411.30;379.15;;;;;;;;;;6247192;23;20337;-96
2023/10/15 05:17:57;;;;;;;388.85;358.92;;;;;;;;;;6247652;23;20004;-96
2023/10/15 05:21:07;;;;;;;386.52;356.85;;;;;;;;;;6223168;23;20008;-96
2023/10/15 05:26:33;;;;;;;413.95;380.33;;;;;;;;;;6251350;23;20011;-96
2023/10/15 05:29:19;;;;;;;421.33;387.52;;;;;;;;;;6250755;23;20012;-95
2023/10/15 05:31:45;;;;;;;370.38;341.77;;;;;;;;;;6251811;23;20426;-95
2023/10/15 05:34:11;;;;;;;428.90;393.05;;;;;;;;;;6248103;23;20008;-96
2023/10/15 05:40:03;;;;;;;467.20;428.73;;;;;;;;;;6249931;23;20018;-95
2023/10/15 05:42:32;;;;;;;427.23;391.58;;;;;;;;;;6247722;23;20235;-96
2023/10/15 05:45:06;;;;;;;418.40;385.52;;;;;;;;;;6247968;23;20394;-95
2023/10/15 05:47:45;;;;;;;463.58;425.17;;;;;;;;;;6247580;23;20012;-96
2023/10/15 05:50:16;;;;;;;418.95;386.40;;;;;;;;;;6264318;22;20102;-95
2023/10/15 05:52:48;;;;;;;392.23;361.45;;;;;;;;;;6228574;23;20008;-96
2023/10/15 05:55:14;;;;;;;388.35;357.95;;;;;;;;;;6248906;23;20011;-96
2023/10/15 05:58:04;;;;;;;439.02;403.90;;;;;;;;;;6248860;23;20008;-96
2023/10/15 06:00:39;;;;;;;369.00;340.23;;;;;;;;;;6254076;23;20090;-96
2023/10/15 06:03:26;;;;;;;401.33;369.42;;;;;;;;;;6250151;23;20437;-95
2023/10/15 06:06:21;;;;;;;401.65;369.23;;;;;;;;;;6248607;22;20426;-95
2023/10/15 06:09:00;;;;;;;;;;;;;;;;;;;;;
2023/10/15 06:11:45;;;;;;;438.95;403.00;;;;;;;;;;6250771;23;20083;-96
2023/10/15 06:14:11;;;;;;;416.67;383.23;;;;;;;;;;6222631;23;20022;-96
2023/10/15 06:17:06;;;;;;;403.58;371.70;;;;;;;;;;6218685;23;20011;-96
2023/10/15 06:19:44;;;;;;;410.60;378.70;;;;;;;;;;6219502;23;20005;-96
2023/10/15 06:22:22;;;;;;;368.48;339.60;;;;;;;;;;6220626;23;20047;-96
2023/10/15 06:24:51;;;;;;;390.52;360.02;;;;;;;;;;6223164;23;20035;-96
2023/10/15 06:27:20;;;;;;;321.52;297.33;;;;;;;;;;6217799;23;20454;-96
2023/10/15 06:29:46;;;;;;;268.95;249.52;;;;;;;;;;6218526;23;20004;-96
2023/10/15 06:57:53;;;;;;;66.63;62.22;;;;;;;;;;6072517;23;20034;-96
2023/10/15 07:06:41;;;;;;;87.35;81.07;;;;;;;;;;6052564;23;20018;-96
2023/10/15 07:09:40;;;;;;;98.07;91.10;;;;;;;;;;6050129;23;20015;-96
2023/10/15 07:12:35;;;;;;;89.30;83.25;;;;;;;;;;6055867;23;20014;-96
2023/10/15 07:15:16;;;;;;;;;;;;;;;;;;;;;
2023/10/15 07:17:45;;;;;;;93.35;86.75;;;;;;;;;;6092882;23;19995;-96
2023/10/15 07:20:21;;;;;;;125.45;116.28;;;;;;;;;;6083629;23;20006;-96
2023/10/15 07:23:28;;;;;;;;;;;;;;;;;;;;;
2023/10/15 07:26:06;;;;;;;94.28;87.88;;;;;;;;;;6127305;23;20041;-96
2023/10/15 07:29:01;;;;;;;88.03;81.80;;;;;;;;;;6157425;23;20025;-95
2023/10/15 07:31:33;;;;;;;189.32;174.40;;;;;;;;;;6250934;23;20000;-96
2023/10/15 07:34:00;;;;;;;120.97;110.30;;;;;;;;;;6224714;23;20064;-96
2023/10/15 07:36:28;;;;;;;84.20;78.40;;;;;;;;;;6224753;23;20009;-96
2023/10/15 07:39:01;;;;;;;160.95;145.75;;;;;;;;;;6222364;23;20007;-96
2023/10/15 07:41:53;;;;;;;80.60;75.28;;;;;;;;;;6225418;23;20010;-96
2023/10/15 07:44:26;;;;;;;106.35;98.25;;;;;;;;;;6231545;22;20008;-96
2023/10/15 07:46:58;;;;;;;97.53;90.53;;;;;;;;;;6219823;23;20004;-96
2023/10/15 07:49:38;;;;;;;93.68;87.15;;;;;;;;;;6220884;23;20061;-92
2023/10/15 07:52:10;;;;;;;111.15;102.57;;;;;;;;;;6255420;22;20012;-95
2023/10/15 07:54:49;;;;;;;107.07;98.82;;;;;;;;;;6259505;22;20080;-95
2023/10/15 07:57:28;;;;;;;114.32;105.78;;;;;;;;;;6254921;22;20078;-93
2023/10/15 08:15:57;;;;;;;96.03;89.43;;;;;;;;;;6242360;23;20015;-96
2023/10/15 08:18:30;;;;;;;95.32;88.45;;;;;;;;;;6225752;23;20012;-96
2023/10/15 08:21:14;;;;;;;94.82;88.47;;;;;;;;;;6225783;23;20014;-96
2023/10/15 08:24:46;;;;;;;;;;;;;;;;;;;;;
2023/10/15 08:27:14;;;;;;;102.93;94.88;;;;;;;;;;6089198;23;20089;-94
2023/10/15 08:30:00;;;;;;;172.20;159.02;;;;;;;;;;6098428;23;20022;-94
2023/10/15 08:32:47;;;;;;;106.75;99.03;;;;;;;;;;6223863;23;20000;-95
2023/10/15 08:35:17;;;;;;;115.82;107.22;;;;;;;;;;6206279;23;20008;-95
2023/10/15 08:40:49;;;;;;;183.57;169.60;;;;;;;;;;6247696;23;20043;-95
2023/10/15 08:43:32;;;;;;;136.35;125.88;;;;;;;;;;6220088;23;20082;-94
2023/10/15 08:46:01;;;;;;;;;;;;;;;;;;6220949;23;20004;-95
2023/10/15 08:48:32;;;;;;;190.40;175.30;;;;;;;;;;6221648;23;19907;-95
2023/10/15 08:53:59;;;;;;;188.35;173.88;;;;;;;;;;6255605;23;20015;-94
2023/10/15 08:56:43;;;;;;;207.45;191.75;;;;;;;;;;6229026;23;20095;-96
2023/10/15 08:59:09;;;;;;;180.30;166.65;;;;;;;;;;6222016;23;20144;-96
2023/10/15 09:01:42;;;;;;;216.40;197.10;;;;;;;;;;6223414;23;20005;-96
2023/10/15 09:10:55;;;;;;;;;;;;;;;;;;;;;
2023/10/15 09:13:50;;;;;;;;;;;;;;;;;;;;;
2023/10/15 09:17:04;;;;;;;479.48;432.77;;;;;;;;;;6081869;23;20011;-95
2023/10/15 09:19:33;;;;;;;390.00;354.80;;;;;;;;;;6077992;23;20076;-96
2023/10/15 09:22:53;;;;;;;;;;;;;;;;;;;;;
2023/10/15 09:34:55;;;;;;;629.97;568.08;;;;;;;;;;6043056;23;20013;-96
2023/10/15 09:37:21;;;;;;;347.23;318.02;;;;;;;;;;6044228;23;20501;-94
2023/10/15 09:39:51;;;;;;;390.25;357.50;;;;;;;;;;6049914;23;20043;-94
2023/10/15 09:54:42;;;;;;;430.48;391.58;;;;;;;;;;6193272;23;20020;-96
2023/10/15 10:23:22;;;;;;;416.40;380.10;;;;;;;;;;6274651;22;20385;-96
2023/10/15 10:36:07;;;;;;;400.48;366.27;;;;;;;;;;6100120;23;20065;-96
2023/10/15 10:38:51;;;;;;;441.20;403.10;;;;;;;;;;6079193;23;20006;-96
2023/10/15 10:41:19;;;;;;;;;;;;;;;;;;6084484;23;20416;-96
2023/10/15 11:34:39;;;;;;;;;;;;;;;;;;;;;
2023/10/15 11:40:23;;;;;;;375.65;343.92;;;;;;;;;;6218809;23;20004;-95
2023/10/15 11:43:09;;;;;;;;;;;;;;;;;;;;;
2023/10/15 11:46:07;;;;;;;342.25;313.20;;;;;;;;;;6132481;23;19939;-96
2023/10/15 11:57:54;;;;;;;325.45;299.20;;;;;;;;;;5985661;23;20019;-96
2023/10/15 12:00:58;;;;;;;;;;;;;;;;;;;;;
2023/10/15 12:03:38;;;;;;;352.48;324.17;;;;;;;;;;6135662;23;20034;-96
2023/10/15 12:12:18;;;;;;;373.17;342.08;;;;;;;;;;6251203;22;20362;-96
2023/10/15 12:14:53;;;;;;;329.80;304.00;;;;;;;;;;6255857;22;20061;-94
2023/10/15 12:17:19;;;;;;;357.67;327.92;;;;;;;;;;6255917;22;20014;-96
2023/10/15 12:20:13;;;;;;;332.27;305.38;;;;;;;;;;6257034;22;20111;-95
2023/10/15 12:23:02;;;;;;;363.92;333.90;;;;;;;;;;6258126;22;20014;-96
2023/10/15 12:26:01;;;;;;;;;;;;;;;;;;;;;
2023/10/15 12:28:47;;;;;;;350.98;322.83;;;;;;;;;;6133970;23;20050;-96
2023/10/15 12:34:21;;;;;;;335.80;309.48;;;;;;;;;;6121832;22;20898;-96
2023/10/15 12:36:53;;;;;;;382.88;350.10;;;;;;;;;;6259612;22;20004;-95
2023/10/15 12:39:26;;;;;;;382.98;350.38;;;;;;;;;;6248745;22;20023;-94
2023/10/15 12:41:58;;;;;;;359.30;329.90;;;;;;;;;;6251153;22;20004;-94
2023/10/15 12:44:30;;;;;;;316.40;291.77;;;;;;;;;;6256035;22;20007;-96
2023/10/15 12:47:00;;;;;;;409.42;374.75;;;;;;;;;;6261548;22;20049;-96
2023/10/15 12:55:19;;;;;;;325.30;299.13;;;;;;;;;;6280326;22;20016;-96
2023/10/15 12:57:50;;;;;;;415.80;379.27;;;;;;;;;;6253373;22;20090;-96
2023/10/15 13:04:00;;;;;;;337.15;310.50;;;;;;;;;;6075778;23;20010;-94
2023/10/15 13:06:58;;;;;;;329.70;302.75;;;;;;;;;;6131812;23;20006;-94
2023/10/15 13:16:09;;;;;;;325.95;299.70;;;;;;;;;;6159051;23;20060;-96
2023/10/15 13:18:39;;;;;;;337.73;310.38;;;;;;;;;;6167681;22;20038;-93
2023/10/15 13:21:18;;;;;;;295.40;273.00;;;;;;;;;;6251310;22;20484;-93
2023/10/15 15:10:06;;;;;;;328.40;302.88;;;;;;;;;;6310298;22;20463;-93
2023/10/15 15:12:36;;;;;;;352.80;324.60;;;;;;;;;;6282418;22;20014;-92
2023/10/15 15:21:41;;;;;;;350.13;323.33;;;;;;;;;;6111763;23;20050;-91
2023/10/15 15:24:07;;;;;;;420.45;386.75;;;;;;;;;;6078035;23;20030;-91
2023/10/15 15:26:33;;;;;;;341.23;315.15;;;;;;;;;;6073189;23;20535;-90
2023/10/15 15:29:06;;;;;;;345.15;318.00;;;;;;;;;;6174680;23;20043;-92
2023/10/15 15:31:32;;;;;;;387.90;357.05;;;;;;;;;;6194547;22;20004;-91
2023/10/15 15:33:59;;;;;;;385.70;354.67;;;;;;;;;;6282015;22;20003;-91
2023/10/15 15:36:28;;;;;;;379.30;348.90;;;;;;;;;;6282130;22;20007;-90
2023/10/15 15:38:55;;;;;;;350.13;322.52;;;;;;;;;;6282429;22;20003;-92
2023/10/15 15:41:26;;;;;;;359.27;331.40;;;;;;;;;;6281803;22;20011;-92
2023/10/15 15:43:52;;;;;;;381.05;350.30;;;;;;;;;;6280812;22;20067;-92
2023/10/15 15:46:18;;;;;;;376.42;346.77;;;;;;;;;;6282195;22;20007;-93
2023/10/15 15:48:46;;;;;;;357.42;329.38;;;;;;;;;;6284040;22;20045;-92
2023/10/15 15:51:13;;;;;;;362.40;333.65;;;;;;;;;;6280674;22;20456;-91
2023/10/15 15:53:39;;;;;;;349.75;323.05;;;;;;;;;;6282651;22;20003;-92
2023/10/15 15:56:08;;;;;;;344.75;317.95;;;;;;;;;;6282165;22;20035;-92
2023/10/15 15:58:49;;;;;;;357.52;329.75;;;;;;;;;;6281751;22;20029;-91
2023/10/15 16:01:22;;;;;;;429.67;395.77;;;;;;;;;;6282255;22;20019;-90
2023/10/15 16:04:03;;;;;;;356.23;327.38;;;;;;;;;;6281770;22;20007;-90
2023/10/15 16:06:30;;;;;;;404.30;371.52;;;;;;;;;;6280009;22;20026;-91
2023/10/15 16:08:58;;;;;;;376.27;346.98;;;;;;;;;;6281568;22;20019;-90
2023/10/15 16:11:24;;;;;;;415.67;382.17;;;;;;;;;;6281280;22;20003;-90
2023/10/15 16:13:52;;;;;;;430.95;395.17;;;;;;;;;;6284370;22;20078;-91
2023/10/15 16:16:21;;;;;;;374.20;344.90;;;;;;;;;;6282567;22;20436;-91
2023/10/15 16:18:47;;;;;;;393.10;361.75;;;;;;;;;;6281942;22;20003;-91
2023/10/15 16:21:15;;;;;;;431.63;396.63;;;;;;;;;;6282188;22;20133;-91
2023/10/15 16:23:41;;;;;;;458.92;421.02;;;;;;;;;;6281931;22;20007;-91
2023/10/15 16:26:07;;;;;;;409.77;376.83;;;;;;;;;;6281663;22;20085;-91
2023/10/15 16:28:33;;;;;;;427.48;392.13;;;;;;;;;;6285210;22;20426;-91
2023/10/15 16:31:01;;;;;;;387.52;357.75;;;;;;;;;;6245635;23;20001;-91
2023/10/15 16:33:30;;;;;;;448.50;411.65;;;;;;;;;;6245951;23;20098;-91
2023/10/15 16:35:57;;;;;;;378.42;347.70;;;;;;;;;;6246215;23;20000;-91
2023/10/15 16:38:34;;;;;;;;;;;;;;;;;;;;;
2023/10/15 16:41:03;;;;;;;365.25;336.00;;;;;;;;;;6248207;23;20087;-91
2023/10/15 16:43:30;;;;;;;438.00;403.15;;;;;;;;;;6246888;23;20373;-91
2023/10/15 16:46:00;;;;;;;437.60;402.17;;;;;;;;;;6246833;23;19997;-94
2023/10/15 16:48:26;;;;;;;408.10;376.48;;;;;;;;;;6222113;23;20020;-93
2023/10/15 16:50:52;;;;;;;412.98;380.92;;;;;;;;;;6246577;23;20430;-94
2023/10/15 16:53:23;;;;;;;428.58;393.48;;;;;;;;;;6247276;23;20009;-94
2023/10/15 16:55:49;;;;;;;389.70;358.33;;;;;;;;;;6246083;23;20007;-93
2023/10/15 16:58:15;;;;;;;396.65;365.73;;;;;;;;;;6246754;23;20031;-93
2023/10/15 17:00:43;;;;;;;436.05;399.27;;;;;;;;;;6247495;23;20008;-93
2023/10/15 17:03:12;;;;;;;449.15;412.80;;;;;;;;;;6245632;23;20005;-91
2023/10/15 17:05:39;;;;;;;388.20;356.23;;;;;;;;;;6249793;23;20093;-93
2023/10/15 17:08:06;;;;;;;446.98;410.67;;;;;;;;;;6222680;23;20016;-93
2023/10/15 17:10:32;;;;;;;401.63;369.90;;;;;;;;;;6248017;23;20004;-93
2023/10/15 17:12:58;;;;;;;435.13;399.75;;;;;;;;;;6251105;23;20008;-92
2023/10/15 17:15:24;;;;;;;417.50;384.00;;;;;;;;;;6253418;23;20011;-91
2023/10/15 17:17:50;;;;;;;310.50;284.92;;;;;;;;;;6271414;22;20012;-93
2023/10/15 17:20:21;;;;;;;341.55;313.60;;;;;;;;;;6265324;22;20020;-91
2023/10/15 17:22:48;;;;;;;345.98;316.88;;;;;;;;;;6235433;23;20001;-90
2023/10/15 17:25:17;;;;;;;338.77;310.67;;;;;;;;;;6231967;23;20051;-90
2023/10/15 17:27:49;;;;;;;444.80;407.77;;;;;;;;;;6222684;23;20016;-90
2023/10/15 17:30:16;;;;;;;332.00;302.63;;;;;;;;;;6222914;23;20008;-90
2023/10/15 17:32:42;;;;;;;378.75;346.77;;;;;;;;;;6222723;23;20429;-90
2023/10/15 17:35:09;;;;;;;333.23;306.92;;;;;;;;;;6222242;23;20008;-91
2023/10/15 17:37:41;;;;;;;350.85;320.77;;;;;;;;;;6224383;23;20007;-90
2023/10/15 17:40:11;;;;;;;336.00;307.35;;;;;;;;;;6222363;23;20384;-91
2023/10/15 17:42:49;;;;;;;330.75;301.65;;;;;;;;;;6222620;23;20004;-92
2023/10/15 17:45:16;;;;;;;438.48;402.67;;;;;;;;;;6222305;23;20008;-91
2023/10/15 17:47:48;;;;;;;398.13;364.92;;;;;;;;;;6213757;23;20069;-94
2023/10/15 17:50:48;;;;;;;329.23;301.60;;;;;;;;;;6222015;23;20028;-90
2023/10/15 17:53:20;;;;;;;415.00;382.38;;;;;;;;;;6221897;23;20099;-92
2023/10/15 17:55:52;;;;;;;370.10;337.05;;;;;;;;;;6222594;23;20095;-92
2023/10/15 17:58:25;;;;;;;332.58;305.60;;;;;;;;;;6222638;23;20033;-91
2023/10/15 18:01:14;;;;;;;370.23;339.33;;;;;;;;;;6186265;23;20005;-90
2023/10/15 18:03:51;;;;;;;345.27;315.83;;;;;;;;;;6185772;23;20005;-93
2023/10/15 18:06:36;;;;;;;426.48;391.33;;;;;;;;;;6187046;23;20008;-92
2023/10/15 18:09:09;;;;;;;374.23;341.00;;;;;;;;;;6186701;23;20049;-91
2023/10/15 18:11:51;;;;;;;332.88;305.83;;;;;;;;;;6185985;23;20141;-93
2023/10/15 18:20:30;;;;;;;493.10;450.38;;;;;;;;;;6135597;23;20055;-93
2023/10/15 18:22:59;;;;;;;412.05;375.40;;;;;;;;;;6131757;23;20060;-91
2023/10/15 18:25:37;;;;;;;409.55;373.95;;;;;;;;;;6147814;23;20005;-93
2023/10/15 18:28:08;;;;;;;403.88;368.63;;;;;;;;;;6161264;23;20437;-93
2023/10/15 18:30:55;;;;;;;;;;;;;;;;;;;;;
2023/10/15 18:33:27;;;;;;;379.70;348.92;;;;;;;;;;6186208;23;20088;-91
2023/10/15 18:35:53;;;;;;;341.35;315.35;;;;;;;;;;6161425;23;20009;-92
2023/10/15 18:38:37;;;;;;;437.98;400.00;;;;;;;;;;6161460;23;20009;-92
2023/10/15 18:41:16;;;;;;;544.75;498.45;;;;;;;;;;6161279;23;20009;-93
2023/10/15 18:43:45;;;;;;;394.90;362.92;;;;;;;;;;6161104;23;20455;-92
2023/10/15 18:46:14;;;;;;;467.50;429.70;;;;;;;;;;6247530;23;20000;-92
2023/10/15 18:48:43;;;;;;;373.05;343.10;;;;;;;;;;6247601;23;20008;-92
2023/10/15 18:51:09;;;;;;;378.58;348.42;;;;;;;;;;6248357;23;20003;-93
2023/10/15 18:53:40;;;;;;;392.88;359.60;;;;;;;;;;6247846;23;20015;-93
2023/10/15 18:56:09;;;;;;;491.92;449.95;;;;;;;;;;6259877;23;20012;-93
2023/10/15 18:58:41;;;;;;;395.00;362.45;;;;;;;;;;6269440;23;20016;-92
2023/10/15 19:01:16;;;;;;;513.78;470.98;;;;;;;;;;6247505;23;20059;-93
2023/10/15 19:03:51;;;;;;;405.98;371.85;;;;;;;;;;6247808;23;20007;-93
2023/10/15 19:06:21;;;;;;;518.83;474.55;;;;;;;;;;6247487;23;20086;-93
2023/10/15 19:08:54;;;;;;;425.35;390.52;;;;;;;;;;6256435;23;20046;-92
2023/10/15 19:11:20;;;;;;;403.05;369.17;;;;;;;;;;6259542;23;20008;-93
2023/10/15 19:13:55;;;;;;;526.55;481.33;;;;;;;;;;6248584;23;20179;-92
2023/10/15 19:16:32;;;;;;;421.83;387.40;;;;;;;;;;6246582;23;20004;-93
2023/10/15 19:19:15;;;;;;;404.15;367.33;;;;;;;;;;6247341;23;20026;-92
2023/10/15 19:21:48;;;;;;;478.73;436.05;;;;;;;;;;6246457;23;20020;-93
2023/10/15 19:24:15;;;;;;;407.10;371.40;;;;;;;;;;6245747;22;20022;-93
2023/10/15 19:26:43;;;;;;;449.58;411.27;;;;;;;;;;6246448;23;20008;-92
2023/10/15 19:29:10;;;;;;;401.05;365.60;;;;;;;;;;6247316;23;20023;-91
2023/10/15 19:31:42;;;;;;;436.20;398.02;;;;;;;;;;6246867;23;20035;-92
2023/10/15 19:34:14;;;;;;;495.00;452.48;;;;;;;;;;6246943;23;20015;-92
2023/10/15 19:36:43;;;;;;;407.00;371.77;;;;;;;;;;6246807;23;20008;-93
2023/10/15 19:39:12;;;;;;;446.15;406.92;;;;;;;;;;6246606;23;20000;-92
2023/10/15 19:41:45;;;;;;;451.77;414.00;;;;;;;;;;6245954;23;20008;-93
2023/10/15 19:44:18;;;;;;;432.45;393.00;;;;;;;;;;6246719;23;20039;-93
2023/10/15 19:46:44;;;;;;;422.73;386.50;;;;;;;;;;6247136;23;20000;-93
2023/10/15 19:49:16;;;;;;;464.40;422.40;;;;;;;;;;6247438;23;20027;-92
2023/10/15 19:51:45;;;;;;;401.13;364.83;;;;;;;;;;6247215;23;20418;-93
2023/10/15 19:54:11;;;;;;;451.05;409.05;;;;;;;;;;6246802;23;20004;-92
2023/10/15 19:56:46;;;;;;;401.33;366.45;;;;;;;;;;6247149;23;20004;-93
2023/10/15 19:59:12;;;;;;;382.90;348.95;;;;;;;;;;6246100;23;20008;-93
2023/10/15 20:01:45;;;;;;;451.90;411.42;;;;;;;;;;6246283;23;20441;-93
2023/10/15 20:04:11;;;;;;;452.60;412.10;;;;;;;;;;6246242;23;20008;-93
2023/10/15 20:06:37;;;;;;;438.23;399.65;;;;;;;;;;6246461;23;20008;-93
2023/10/15 20:09:17;;;;;;;445.85;406.63;;;;;;;;;;6245832;23;20038;-94
2023/10/15 20:11:43;;;;;;;445.27;404.90;;;;;;;;;;6245205;23;20014;-92
2023/10/15 20:14:10;;;;;;;466.83;423.83;;;;;;;;;;6220476;23;20008;-93
2023/10/15 20:16:48;;;;;;;424.05;386.55;;;;;;;;;;6246720;23;20072;-94
2023/10/15 20:19:23;;;;;;;471.05;427.65;;;;;;;;;;6244954;23;20394;-93
2023/10/15 20:21:50;;;;;;;655.97;588.55;;;;;;;;;;6245769;23;20020;-94
2023/10/15 20:27:18;;;;;;;467.58;424.15;;;;;;;;;;6184785;23;20005;-94
2023/10/15 20:29:48;;;;;;;420.55;383.33;;;;;;;;;;6185007;23;20013;-94
2023/10/15 20:32:14;;;;;;;448.83;406.23;;;;;;;;;;6199729;23;20013;-91
2023/10/15 20:34:43;;;;;;;433.42;394.50;;;;;;;;;;6227050;22;20020;-94
2023/10/15 20:37:18;;;;;;;398.35;362.88;;;;;;;;;;6245687;23;20009;-93
2023/10/15 20:40:11;;;;;;;419.23;382.98;;;;;;;;;;6237160;23;20429;-95
2023/10/15 20:42:45;;;;;;;418.88;381.52;;;;;;;;;;6205117;23;20004;-93
2023/10/15 20:45:15;;;;;;;548.15;495.90;;;;;;;;;;6220298;23;20011;-95
2023/10/15 20:47:47;;;;;;;411.05;375.80;;;;;;;;;;6220292;23;20429;-96
2023/10/15 20:50:21;;;;;;;517.30;469.10;;;;;;;;;;6220245;23;20005;-95
2023/10/15 20:55:42;;;;;;;365.92;335.48;;;;;;;;;;6189040;23;20014;-94
2023/10/15 20:58:14;;;;;;;516.38;469.00;;;;;;;;;;6220060;23;20005;-94
2023/10/15 21:01:20;;;;;;;436.95;398.67;;;;;;;;;;6222080;23;20004;-94
2023/10/15 21:03:39;;;;;;;399.75;364.10;;;;;;;;;;6258808;23;20024;-95
2023/10/15 21:06:17;;;;;;;405.90;370.95;;;;;;;;;;6222909;23;20429;-94
2023/10/15 21:08:44;;;;;;;409.65;373.17;;;;;;;;;;6220249;23;20012;-95
2023/10/15 21:11:28;;;;;;;429.20;393.73;;;;;;;;;;6211879;23;20000;-96
2023/10/15 21:23:22;;;;;;;427.25;386.55;;;;;;;;;;6246648;23;20533;-93
2023/10/15 21:25:51;;;;;;;500.65;451.98;;;;;;;;;;6220070;23;20008;-93
2023/10/15 21:28:17;;;;;;;401.38;365.23;;;;;;;;;;6220823;23;20365;-94
2023/10/15 21:30:49;;;;;;;422.40;384.60;;;;;;;;;;6219914;23;20001;-94
2023/10/15 21:33:15;;;;;;;389.90;354.63;;;;;;;;;;6219876;23;20034;-95
2023/10/15 21:35:48;;;;;;;391.75;355.73;;;;;;;;;;6219705;23;20016;-95
2023/10/15 21:38:14;;;;;;;393.20;357.63;;;;;;;;;;6219861;23;20008;-95
2023/10/15 21:40:46;;;;;;;428.73;389.75;;;;;;;;;;6220090;23;20059;-95
2023/10/15 21:43:13;;;;;;;407.65;370.67;;;;;;;;;;6220026;23;20008;-93
2023/10/15 21:46:08;;;;;;;340.40;313.10;;;;;;;;;;6220436;23;20000;-95
2023/10/15 21:48:39;;;;;;;418.75;380.90;;;;;;;;;;6206384;23;20353;-94
2023/10/15 21:51:09;;;;;;;403.52;366.73;;;;;;;;;;6219158;23;20095;-94
2023/10/15 21:53:53;;;;;;;437.30;397.75;;;;;;;;;;6219639;23;20077;-94
2023/10/15 21:56:22;;;;;;;457.58;414.40;;;;;;;;;;6220146;23;20000;-94
2023/10/15 21:58:48;;;;;;;408.10;371.35;;;;;;;;;;6219794;23;20472;-95
2023/10/15 22:01:21;;;;;;;399.50;362.45;;;;;;;;;;6219920;23;20043;-93
2023/10/15 22:03:57;;;;;;;454.90;411.67;;;;;;;;;;6222092;23;20011;-94
2023/10/15 22:06:28;;;;;;;400.50;366.05;;;;;;;;;;6221606;23;20008;-96
2023/10/15 22:08:54;;;;;;;413.60;377.38;;;;;;;;;;6220712;23;20019;-96
2023/10/15 22:11:20;;;;;;;440.92;398.60;;;;;;;;;;6221783;23;20083;-94
2023/10/15 22:14:01;;;;;;;417.92;379.38;;;;;;;;;;6221526;23;20088;-95
2023/10/15 22:16:34;;;;;;;440.25;399.63;;;;;;;;;;6221551;23;20054;-95
2023/10/15 22:19:21;;;;;;;479.17;434.52;;;;;;;;;;6221229;23;20008;-95
2023/10/15 22:21:53;;;;;;;412.02;375.63;;;;;;;;;;6185469;23;20015;-94
2023/10/15 22:24:29;;;;;;;446.38;404.42;;;;;;;;;;6219025;23;20009;-94
2023/10/15 22:27:12;;;;;;;465.95;422.23;;;;;;;;;;6221642;23;20026;-96
2023/10/15 22:29:39;;;;;;;436.83;396.90;;;;;;;;;;6221495;23;20008;-93